Time;durP1;ratioP1;P1;durP2;ratioP2;P2;SDS_P1;SDS_P2;PMS_P1;PMS_P2;Temp;Humidity;BMP_temperature;BMP_pressure;BME280_temperature;BME280_humidity;BME280_pressure;Samples;Min_cycle;Max_cycle;Signal;HPM_P1;HPM_P2
2023/10/18 00:01:19;;;;;;;3.00;1.70;;;;;4.60;96930.00;;;;5011025;28;21002;-65
2023/10/18 00:04:14;;;;;;;3.43;1.93;;;;;4.50;96918.00;;;;5011507;28;20417;-66
2023/10/18 00:07:03;;;;;;;4.43;2.40;;;;;4.30;96921.00;;;;5010042;28;20499;-65
2023/10/18 00:09:52;;;;;;;3.57;1.90;;;;;4.50;96920.00;;;;5011686;28;20440;-65
2023/10/18 00:12:41;;;;;;;7.50;3.77;;;;;4.40;96916.00;;;;5010607;28;20429;-65
2023/10/18 00:15:31;;;;;;;8.87;4.13;;;;;4.40;96906.00;;;;5010416;28;22150;-65
2023/10/18 00:18:20;;;;;;;4.70;2.27;;;;;4.30;96889.00;;;;5010856;28;20480;-64
2023/10/18 00:21:12;;;;;;;4.30;2.20;;;;;4.10;96895.00;;;;5005148;28;20441;-65
2023/10/18 00:24:01;;;;;;;3.30;1.77;;;;;4.60;96899.00;;;;5016408;28;20422;-65
2023/10/18 00:26:51;;;;;;;4.90;2.30;;;;;4.50;96901.00;;;;5014691;28;20480;-65
2023/10/18 00:29:43;;;;;;;8.03;3.80;;;;;4.80;96907.00;;;;5010557;28;20436;-65
2023/10/18 00:32:32;;;;;;;8.77;3.97;;;;;4.80;96913.00;;;;5010229;28;20440;-65
2023/10/18 00:35:22;;;;;;;7.10;3.13;;;;;4.50;96899.00;;;;5007088;28;20442;-65
2023/10/18 00:38:16;;;;;;;8.00;3.57;;;;;4.50;96874.00;;;;5014386;28;20539;-65
2023/10/18 00:41:08;;;;;;;7.43;3.23;;;;;4.50;96873.00;;;;5004520;28;20460;-65
2023/10/18 00:43:57;;;;;;;5.77;2.57;;;;;4.10;96879.00;;;;5012287;28;20417;-66
2023/10/18 00:46:46;;;;;;;5.53;2.67;;;;;3.90;96895.00;;;;5009042;28;20974;-65
2023/10/18 00:49:36;;;;;;;9.40;4.03;;;;;3.80;96903.00;;;;5009955;28;20429;-65
2023/10/18 00:52:26;;;;;;;4.80;2.20;;;;;3.60;96891.00;;;;5009666;28;20433;-65
2023/10/18 00:55:17;;;;;;;3.73;1.73;;;;;4.20;96883.00;;;;5006245;28;20437;-66
2023/10/18 00:58:08;;;;;;;5.53;2.57;;;;;4.00;96880.00;;;;5010000;28;20797;-65
2023/10/18 01:00:58;;;;;;;3.80;1.77;;;;;4.10;96879.00;;;;5009453;28;20413;-65
2023/10/18 01:03:50;;;;;;;9.53;4.00;;;;;4.10;96887.00;;;;5008911;28;20487;-65
2023/10/18 01:06:45;;;;;;;9.93;4.23;;;;;4.00;96893.00;;;;5009036;28;20463;-65
2023/10/18 01:09:35;;;;;;;9.77;4.00;;;;;4.00;96886.00;;;;5013719;28;20956;-65
2023/10/18 01:12:25;;;;;;;4.30;1.90;;;;;4.20;96888.00;;;;5015747;28;20811;-65
2023/10/18 01:15:19;;;;;;;6.80;2.87;;;;;3.90;96877.00;;;;5005757;28;21260;-64
2023/10/18 01:18:08;;;;;;;6.13;2.70;;;;;3.60;96872.00;;;;5008775;28;20418;-65
2023/10/18 01:20:58;;;;;;;5.47;2.67;;;;;3.30;96863.00;;;;5002210;28;20425;-66
2023/10/18 01:23:50;;;;;;;4.63;2.20;;;;;3.70;96855.00;;;;5010535;28;20421;-65
2023/10/18 01:26:41;;;;;;;5.03;2.40;;;;;4.00;96851.00;;;;5018352;28;20483;-65
2023/10/18 01:29:30;;;;;;;9.10;4.00;;;;;3.90;96860.00;;;;5025255;28;20428;-65
2023/10/18 01:32:21;;;;;;;5.50;2.60;;;;;3.70;96864.00;;;;5017060;28;20445;-65
2023/10/18 01:35:11;;;;;;;5.67;2.60;;;;;3.70;96862.00;;;;5010646;28;20821;-65
2023/10/18 01:38:04;;;;;;;6.00;2.83;;;;;4.00;96860.00;;;;5014310;28;20436;-65
2023/10/18 01:40:55;;;;;;;4.20;2.07;;;;;3.90;96856.00;;;;5027592;28;20452;-65
2023/10/18 01:43:47;;;;;;;6.50;3.10;;;;;3.50;96852.00;;;;5025762;28;20436;-65
2023/10/18 01:46:39;;;;;;;9.23;4.20;;;;;3.30;96849.00;;;;5016530;28;20456;-65
2023/10/18 01:49:29;;;;;;;5.33;2.50;;;;;2.90;96850.00;;;;5016492;28;20432;-65
2023/10/18 01:52:19;;;;;;;5.33;2.60;;;;;3.40;96850.00;;;;5019860;28;20417;-64
2023/10/18 01:55:12;;;;;;;5.10;2.57;;;;;3.30;96840.00;;;;5008825;28;20420;-65
2023/10/18 01:58:01;;;;;;;4.30;2.10;;;;;3.60;96841.00;;;;5007530;28;20420;-64
2023/10/18 02:00:53;;;;;;;5.20;2.50;;;;;3.90;96838.00;;;;5024664;28;20477;-64
2023/10/18 02:03:44;;;;;;;7.50;3.43;;;;;3.50;96838.00;;;;5018156;28;20421;-65
2023/10/18 02:06:34;;;;;;;8.40;3.83;;;;;3.20;96836.00;;;;5018646;28;20958;-65
2023/10/18 02:09:23;;;;;;;5.30;2.60;;;;;2.80;96841.00;;;;5025373;28;20416;-65
2023/10/18 02:12:12;;;;;;;5.73;2.60;;;;;3.10;96837.00;;;;5027292;28;20805;-65
2023/10/18 02:15:06;;;;;;;4.93;2.30;;;;;3.40;96829.00;;;;5027731;28;20435;-65
2023/10/18 02:17:57;;;;;;;7.87;3.50;;;;;3.80;96843.00;;;;5007987;28;20444;-64
2023/10/18 02:20:52;;;;;;;6.23;3.03;;;;;4.00;96829.00;;;;5026471;28;20467;-65
2023/10/18 02:23:42;;;;;;;7.00;3.20;;;;;3.90;96830.00;;;;5025301;28;20464;-65
2023/10/18 02:26:31;;;;;;;8.13;3.70;;;;;3.80;96831.00;;;;5018131;28;20841;-65
2023/10/18 02:29:21;;;;;;;6.83;3.00;;;;;3.50;96831.00;;;;5101918;22;20508;-70
2023/10/18 02:32:22;;;;;;;4.20;1.93;;;;;3.20;96831.00;;;;5081072;28;20457;-70
2023/10/18 02:35:16;;;;;;;6.47;2.80;;;;;3.30;96842.00;;;;5084577;28;20444;-70
2023/10/18 02:38:10;;;;;;;5.33;2.40;;;;;3.10;96829.00;;;;5081155;28;20445;-70
2023/10/18 02:41:07;;;;;;;4.93;2.20;;;;;3.30;96824.00;;;;5081554;28;21141;-70
2023/10/18 02:43:57;;;;;;;3.10;1.60;;;;;3.40;96834.00;;;;5083675;28;20421;-70
2023/10/18 02:46:49;;;;;;;7.37;3.13;;;;;3.70;96835.00;;;;5086827;28;20780;-70
2023/10/18 02:49:38;;;;;;;9.27;4.03;;;;;3.60;96838.00;;;;5085557;28;20422;-70
2023/10/18 02:52:30;;;;;;;5.37;2.33;;;;;3.40;96825.00;;;;5087074;28;20512;-71
2023/10/18 02:55:19;;;;;;;6.65;2.90;;;;;2.80;96831.00;;;;5076627;28;20436;-69
2023/10/18 02:58:09;;;;;;;4.80;2.30;;;;;3.00;96833.00;;;;5086717;28;20441;-70
2023/10/18 03:01:05;;;;;;;5.57;2.50;;;;;2.80;96834.00;;;;5080094;28;20443;-70
2023/10/18 03:03:55;;;;;;;3.93;2.00;;;;;2.20;96828.00;;;;5079842;28;20438;-69
2023/10/18 03:06:46;;;;;;;7.33;3.40;;;;;2.80;96847.00;;;;5086960;28;20445;-69
2023/10/18 03:09:39;;;;;;;9.77;4.20;;;;;2.90;96843.00;;;;5089812;28;20450;-70
2023/10/18 03:12:28;;;;;;;5.53;2.57;;;;;2.60;96835.00;;;;5086310;28;20434;-70
2023/10/18 03:15:18;;;;;;;3.70;1.90;;;;;2.90;96835.00;;;;5082943;28;20840;-70
2023/10/18 03:18:14;;;;;;;6.97;3.07;;;;;2.90;96834.00;;;;5080600;28;20460;-70
2023/10/18 03:21:07;;;;;;;5.27;2.40;;;;;2.90;96831.00;;;;5080684;28;20461;-70
2023/10/18 03:23:57;;;;;;;5.43;2.30;;;;;3.10;96829.00;;;;5080228;28;20794;-70
2023/10/18 03:26:48;;;;;;;8.40;3.83;;;;;3.30;96843.00;;;;5086274;28;20429;-69
2023/10/18 03:29:38;;;;;;;8.67;3.73;;;;;3.10;96831.00;;;;5086660;28;20438;-69
2023/10/18 03:32:27;;;;;;;4.77;2.17;;;;;2.80;96834.00;;;;5086798;28;20433;-69
2023/10/18 03:35:20;;;;;;;5.67;2.50;;;;;2.70;96823.00;;;;5082663;28;20434;-70
2023/10/18 03:38:16;;;;;;;3.83;1.90;;;;;2.40;96830.00;;;;5086931;28;20827;-69
2023/10/18 03:41:07;;;;;;;6.70;2.83;;;;;2.60;96827.00;;;;5087671;28;20461;-70
2023/10/18 03:44:03;;;;;;;5.40;2.40;;;;;2.60;96833.00;;;;5086709;28;20429;-69
2023/10/18 03:46:57;;;;;;;5.67;2.50;;;;;2.50;96826.00;;;;5087491;28;20413;-69
2023/10/18 03:49:47;;;;;;;9.30;3.93;;;;;2.50;96837.00;;;;5086508;28;20433;-70
2023/10/18 03:52:38;;;;;;;10.10;4.30;;;;;2.10;96821.00;;;;5083162;28;20423;-70
2023/10/18 03:55:36;;;;;;;7.70;3.37;;;;;2.40;96832.00;;;;5086706;28;20422;-70
2023/10/18 03:58:26;;;;;;;4.63;2.37;;;;;2.60;96819.00;;;;5083216;28;20432;-70
2023/10/18 04:01:21;;;;;;;4.10;2.03;;;;;2.50;96825.00;;;;5079916;28;20749;-70
2023/10/18 04:04:18;;;;;;;5.20;2.40;;;;;2.70;96818.00;;;;5081494;28;20421;-70
2023/10/18 04:07:16;;;;;;;5.10;2.37;;;;;2.80;96807.00;;;;5086350;28;20433;-69
2023/10/18 04:10:12;;;;;;;4.20;2.03;;;;;2.70;96812.00;;;;5087209;28;20430;-69
2023/10/18 04:13:02;;;;;;;4.13;2.03;;;;;2.50;96814.00;;;;5079907;28;20440;-69
2023/10/18 04:15:59;;;;;;;11.27;4.70;;;;;2.40;96802.00;;;;5076701;28;20430;-70
2023/10/18 04:18:49;;;;;;;5.83;2.60;;;;;2.20;96804.00;;;;5086315;28;22615;-69
2023/10/18 04:21:40;;;;;;;9.60;4.03;;;;;2.20;96799.00;;;;5086023;28;20473;-69
2023/10/18 04:24:29;;;;;;;5.93;2.70;;;;;2.10;96801.00;;;;5086608;28;20520;-69
2023/10/18 04:27:18;;;;;;;5.50;2.60;;;;;1.90;96793.00;;;;5086581;28;20437;-69
2023/10/18 04:30:12;;;;;;;5.03;2.30;;;;;2.00;96805.00;;;;5086960;28;20943;-70
2023/10/18 04:33:12;;;;;;;5.30;2.53;;;;;1.90;96793.00;;;;5086289;28;20434;-70
2023/10/18 04:36:09;;;;;;;7.57;3.30;;;;;2.10;96800.00;;;;5081655;28;20447;-69
2023/10/18 04:38:58;;;;;;;4.80;2.33;;;;;2.50;96822.00;;;;5082915;28;20977;-69
2023/10/18 04:41:47;;;;;;;7.15;3.40;;;;;2.10;96804.00;;;;5089769;28;21004;-70
2023/10/18 04:44:36;;;;;;;9.37;4.00;;;;;2.00;96802.00;;;;5090345;28;20429;-69
2023/10/18 04:47:32;;;;;;;6.83;3.07;;;;;1.80;96801.00;;;;5090016;28;21123;-70
2023/10/18 04:50:29;;;;;;;8.23;3.60;;;;;1.90;96795.00;;;;5084132;28;20441;-70
2023/10/18 04:53:23;;;;;;;8.37;3.70;;;;;1.70;96795.00;;;;5085103;28;20808;-69
2023/10/18 04:56:12;;;;;;;8.83;3.80;;;;;1.90;96792.00;;;;5087065;28;20434;-70
2023/10/18 04:59:00;;;;;;;7.27;3.30;;;;;1.90;96796.00;;;;5087943;28;20464;-71
2023/10/18 05:01:56;;;;;;;7.80;3.37;;;;;2.10;96797.00;;;;5086411;28;21260;-70
2023/10/18 05:04:46;;;;;;;9.97;4.43;;;;;1.80;96789.00;;;;5087663;28;20442;-70
2023/10/18 05:07:42;;;;;;;9.70;4.43;;;;;1.90;96790.00;;;;5086347;28;20438;-69
2023/10/18 05:10:33;;;;;;;6.90;3.00;;;;;1.90;96790.00;;;;5077692;28;20435;-70
2023/10/18 05:13:32;;;;;;;5.13;2.40;;;;;2.00;96787.00;;;;5086515;28;20429;-69
2023/10/18 05:16:21;;;;;;;5.10;2.43;;;;;2.20;96802.00;;;;5084927;28;20440;-69
2023/10/18 05:19:11;;;;;;;5.13;2.30;;;;;2.00;96796.00;;;;5083370;28;20820;-69
2023/10/18 05:22:03;;;;;;;3.23;1.80;;;;;2.30;96801.00;;;;5090688;28;20494;-70
2023/10/18 05:25:08;;;;;;;8.07;3.67;;;;;2.60;96796.00;;;;5078293;28;20432;-69
2023/10/18 05:28:09;;;;;;;10.03;4.50;;;;;2.40;96802.00;;;;5082319;28;20505;-70
2023/10/18 05:31:26;;;;;;;5.50;2.73;;;;;2.20;96799.00;;;;5086928;28;20438;-69
2023/10/18 05:34:21;;;;;;;4.97;2.47;;;;;2.20;96795.00;;;;5085482;28;20437;-70
2023/10/18 05:37:14;;;;;;;4.00;2.13;;;;;2.10;96794.00;;;;5083251;28;20418;-70
2023/10/18 05:43:22;;;;;;;5.37;2.73;;;;;2.60;96799.00;;;;5084205;28;20489;-70
2023/10/18 05:46:11;;;;;;;4.97;2.47;;;;;2.60;96806.00;;;;5086908;28;20558;-70
2023/10/18 05:49:01;;;;;;;20.70;9.10;;;;;2.60;96805.00;;;;5081035;28;20468;-69
2023/10/18 05:51:54;;;;;;;5.70;2.70;;;;;2.80;96814.00;;;;5083362;28;20438;-70
2023/10/18 05:54:44;;;;;;;9.70;4.60;;;;;2.70;96801.00;;;;5087286;28;20418;-69
2023/10/18 05:57:33;;;;;;;8.80;4.10;;;;;2.70;96791.00;;;;5084869;28;20459;-70
2023/10/18 06:00:23;;;;;;;7.33;3.53;;;;;1.90;96801.00;;;;5085888;28;20422;-70
2023/10/18 06:03:13;;;;;;;4.50;2.47;;;;;1.90;96797.00;;;;5084784;28;20422;-70
2023/10/18 06:06:04;;;;;;;8.00;3.60;;;;;2.30;96787.00;;;;5086399;28;20461;-69
2023/10/18 06:08:57;;;;;;;5.23;2.50;;;;;2.10;96795.00;;;;5086611;28;20441;-70
2023/10/18 06:11:48;;;;;;;8.20;4.00;;;;;2.60;96804.00;;;;5085470;28;20436;-70
2023/10/18 06:14:40;;;;;;;9.63;4.37;;;;;2.60;96799.00;;;;5080439;28;20418;-69
2023/10/18 06:17:46;;;;;;;4.97;2.50;;;;;2.50;96800.00;;;;5087428;28;20429;-68
2023/10/18 06:20:38;;;;;;;10.13;4.60;;;;;2.10;96810.00;;;;5088062;28;20510;-70
2023/10/18 06:23:37;;;;;;;4.80;2.40;;;;;2.40;96815.00;;;;5087649;28;20671;-69
2023/10/18 06:26:30;;;;;;;4.13;2.10;;;;;2.90;96821.00;;;;5088275;28;20516;-70
2023/10/18 06:29:23;;;;;;;5.53;2.73;;;;;2.90;96827.00;;;;5086739;28;20461;-70
2023/10/18 06:32:14;;;;;;;5.20;2.60;;;;;2.90;96828.00;;;;5084758;28;20429;-69
2023/10/18 06:35:10;;;;;;;4.63;2.20;;;;;2.60;96815.00;;;;5083412;28;20499;-70
2023/10/18 06:38:02;;;;;;;8.00;3.70;;;;;2.70;96821.00;;;;5081461;28;20826;-69
2023/10/18 06:40:53;;;;;;;4.60;2.20;;;;;2.50;96817.00;;;;5086209;28;20421;-68
2023/10/18 06:43:52;;;;;;;4.43;2.20;;;;;2.70;96817.00;;;;5087707;28;20422;-69
2023/10/18 06:46:44;;;;;;;10.43;4.60;;;;;2.80;96824.00;;;;5085096;28;20789;-69
2023/10/18 06:49:33;;;;;;;6.43;2.90;;;;;2.70;96810.00;;;;5088828;28;20449;-69
2023/10/18 06:52:28;;;;;;;5.07;2.47;;;;;3.00;96815.00;;;;5085646;28;20425;-71
2023/10/18 06:55:18;;;;;;;5.97;2.73;;;;;3.30;96811.00;;;;5083939;28;20434;-70
2023/10/18 06:58:12;;;;;;;4.57;2.30;;;;;3.60;96818.00;;;;5083071;28;20468;-70
2023/10/18 07:01:13;;;;;;;5.43;2.60;;;;;3.60;96812.00;;;;5090550;28;20435;-70
2023/10/18 07:04:03;;;;;;;2.93;1.57;;;;;3.80;96815.00;;;;5087520;28;20432;-69
2023/10/18 07:06:53;;;;;;;5.63;2.57;;;;;3.80;96800.00;;;;5080921;28;20807;-70
2023/10/18 07:09:43;;;;;;;10.17;4.43;;;;;4.30;96808.00;;;;5087662;28;20795;-71
2023/10/18 07:12:44;;;;;;;6.77;2.97;;;;;4.30;96796.00;;;;5086081;28;20421;-71
2023/10/18 07:15:35;;;;;;;9.47;3.97;;;;;4.00;96801.00;;;;5085569;28;20433;-72
2023/10/18 07:18:27;;;;;;;4.10;1.97;;;;;4.30;96793.00;;;;5085831;28;20442;-70
2023/10/18 07:21:19;;;;;;;7.07;3.23;;;;;4.50;96795.00;;;;5084203;28;20422;-70
2023/10/18 07:24:10;;;;;;;6.63;2.93;;;;;5.20;96791.00;;;;5085781;28;20433;-71
2023/10/18 07:27:03;;;;;;;7.50;3.30;;;;;5.20;96787.00;;;;5081406;28;20436;-71
2023/10/18 07:29:52;;;;;;;4.27;2.07;;;;;5.30;96799.00;;;;5086919;28;20429;-72
2023/10/18 07:32:42;;;;;;;11.17;4.80;;;;;5.40;96788.00;;;;5085725;28;20433;-71
2023/10/18 07:35:31;;;;;;;9.63;4.00;;;;;5.40;96785.00;;;;5086853;28;20437;-73
2023/10/18 07:38:25;;;;;;;6.00;2.57;;;;;5.70;96791.00;;;;5086465;28;20457;-71
2023/10/18 07:41:15;;;;;;;5.60;2.50;;;;;5.60;96785.00;;;;5083066;28;20489;-70
2023/10/18 07:44:06;;;;;;;4.53;2.20;;;;;6.00;96786.00;;;;5086254;28;20430;-70
2023/10/18 07:46:55;;;;;;;5.97;2.63;;;;;6.20;96794.00;;;;5078250;28;20429;-72
2023/10/18 07:49:46;;;;;;;6.27;2.70;;;;;6.40;96774.00;;;;5088471;28;20427;-71
2023/10/18 07:52:35;;;;;;;9.63;4.03;;;;;6.70;96775.00;;;;5086897;28;20426;-71
2023/10/18 07:55:27;;;;;;;7.00;2.80;;;;;7.00;96778.00;;;;5086647;28;20414;-72
2023/10/18 07:58:22;;;;;;;4.87;2.17;;;;;7.60;96778.00;;;;5082395;28;20328;-71
2023/10/18 08:01:13;;;;;;;7.17;3.47;;;;;7.70;96774.00;;;;5079247;28;20699;-71
2023/10/18 08:04:02;;;;;;;7.63;3.57;;;;;8.10;96779.00;;;;5087427;28;20206;-72
2023/10/18 08:06:53;;;;;;;6.20;2.70;;;;;8.80;96779.00;;;;5086307;28;20870;-72
2023/10/18 08:09:43;;;;;;;19.00;8.60;;;;;9.10;96780.00;;;;5086761;28;20199;-73
2023/10/18 08:12:33;;;;;;;8.33;5.17;;;;;9.10;96779.00;;;;5087027;28;20203;-71
2023/10/18 08:15:22;;;;;;;9.57;5.80;;;;;9.60;96775.00;;;;5090569;28;20208;-71
2023/10/18 08:18:15;;;;;;;8.03;4.33;;;;;9.70;96770.00;;;;5083037;28;21028;-72
2023/10/18 08:21:07;;;;;;;7.23;4.50;;;;;9.90;96774.00;;;;5081117;28;20573;-72
2023/10/18 08:23:57;;;;;;;6.57;2.80;;;;;10.00;96774.00;;;;5083414;28;20230;-71
2023/10/18 08:26:48;;;;;;;12.43;6.30;;;;;10.40;96765.00;;;;5086512;28;20957;-71
2023/10/18 08:29:37;;;;;;;15.53;6.53;;;;;10.40;96767.00;;;;5089639;22;20246;-70
2023/10/18 08:32:31;;;;;;;8.73;4.13;;;;;10.60;96772.00;;;;5066240;28;20565;-70
2023/10/18 08:35:21;;;;;;;8.47;4.00;;;;;10.60;96767.00;;;;5064588;28;20222;-70
2023/10/18 08:38:12;;;;;;;13.33;5.93;;;;;10.90;96772.00;;;;5068180;28;20227;-70
2023/10/18 08:41:11;;;;;;;7.70;4.07;;;;;11.10;96777.00;;;;5067499;28;20697;-70
2023/10/18 08:44:10;;;;;;;11.57;5.80;;;;;11.40;96770.00;;;;5066819;28;20697;-70
2023/10/18 08:47:11;;;;;;;134.32;125.82;;;;;11.20;96773.00;;;;5066167;28;20380;-70
2023/10/18 08:50:05;;;;;;;8.17;5.70;;;;;11.60;96774.00;;;;5067172;28;20210;-70
2023/10/18 08:52:56;;;;;;;8.90;4.20;;;;;11.80;96766.00;;;;5064954;28;20661;-70
2023/10/18 08:55:45;;;;;;;11.43;5.07;;;;;12.30;96769.00;;;;5062277;28;20196;-70
2023/10/18 08:58:35;;;;;;;13.30;5.53;;;;;12.50;96764.00;;;;5068588;28;20231;-70
2023/10/18 09:01:25;;;;;;;10.60;4.97;;;;;12.80;96770.00;;;;5068221;28;20584;-70
2023/10/18 09:04:13;;;;;;;12.00;5.33;;;;;12.70;96769.00;;;;5070836;28;20227;-70
2023/10/18 09:07:18;;;;;;;8.23;3.87;;;;;12.70;96767.00;;;;5064920;28;20212;-70
2023/10/18 09:10:13;;;;;;;8.83;4.40;;;;;13.00;96766.00;;;;5071891;28;20191;-70
2023/10/18 09:16:12;;;;;;;6.70;4.07;;;;;13.40;96774.00;;;;5067207;28;20597;-70
2023/10/18 09:19:01;;;;;;;8.17;4.40;;;;;13.50;96773.00;;;;5065352;28;20223;-70
2023/10/18 09:21:57;;;;;;;13.53;6.30;;;;;13.70;96765.00;;;;5067545;28;20559;-71
2023/10/18 09:24:46;;;;;;;21.60;9.03;;;;;13.80;96766.00;;;;5066672;28;20253;-71
2023/10/18 09:27:37;;;;;;;11.53;6.30;;;;;13.40;96767.00;;;;5067623;28;20206;-71
2023/10/18 09:30:29;;;;;;;12.60;6.30;;;;;13.00;96755.00;;;;5073251;28;20207;-71
2023/10/18 09:33:17;;;;;;;12.30;6.57;;;;;13.70;96756.00;;;;5071470;28;20207;-70
2023/10/18 09:36:19;;;;;;;17.27;8.03;;;;;13.90;96758.00;;;;5070662;28;20207;-71
2023/10/18 09:39:10;;;;;;;11.30;5.90;;;;;14.30;96750.00;;;;5064179;28;20728;-70
2023/10/18 09:42:01;;;;;;;7.73;5.37;;;;;14.30;96766.00;;;;5062669;28;20713;-70
2023/10/18 09:44:51;;;;;;;17.33;8.80;;;;;13.50;96770.00;;;;5074258;28;20211;-71
2023/10/18 09:47:41;;;;;;;16.23;7.30;;;;;14.50;96772.00;;;;5068212;28;20657;-71
2023/10/18 09:50:34;;;;;;;9.73;5.60;;;;;14.30;96759.00;;;;5079895;28;20207;-71
2023/10/18 09:53:26;;;;;;;9.13;5.47;;;;;14.00;96752.00;;;;5069361;28;20203;-71
2023/10/18 09:56:18;;;;;;;12.50;5.57;;;;;14.90;96766.00;;;;5069746;28;20196;-71
2023/10/18 09:59:09;;;;;;;11.77;5.60;;;;;15.40;96764.00;;;;5068594;28;20228;-71
2023/10/18 10:02:08;;;;;;;175.82;166.35;;;;;15.20;96750.00;;;;5065842;28;20448;-71
2023/10/18 10:05:05;;;;;;;12.83;7.57;;;;;15.90;96752.00;;;;5066222;28;20195;-71
2023/10/18 10:07:56;;;;;;;17.87;7.53;;;;;16.20;96751.00;;;;5066017;28;20582;-71
2023/10/18 10:10:45;;;;;;;20.43;7.90;;;;;15.70;96750.00;;;;5063667;28;20200;-71
2023/10/18 10:13:37;;;;;;;7.17;3.17;;;;;16.30;96733.00;;;;5060695;28;20581;-71
2023/10/18 10:16:27;;;;;;;14.73;5.63;;;;;16.20;96744.00;;;;5066713;28;20203;-71
2023/10/18 10:19:18;;;;;;;7.30;2.83;;;;;16.50;96719.00;;;;5066962;28;20220;-71
2023/10/18 10:22:08;;;;;;;5.00;2.13;;;;;16.00;96714.00;;;;5069572;28;20208;-71
2023/10/18 10:25:00;;;;;;;8.67;3.53;;;;;17.30;96709.00;;;;5068530;28;20216;-72
2023/10/18 10:27:53;;;;;;;10.17;4.03;;;;;17.30;96710.00;;;;5075283;28;20716;-71
2023/10/18 10:30:43;;;;;;;10.07;4.10;;;;;17.40;96707.00;;;;5064305;28;20283;-71
2023/10/18 10:34:05;;;;;;;5.40;2.23;;;;;15.60;96702.00;;;;5061449;28;20571;-72
2023/10/18 10:37:06;;;;;;;5.23;2.20;;;;;16.50;96689.00;;;;5067187;28;20715;-71
2023/10/18 10:40:19;;;;;;;8.73;3.37;;;;;15.80;96690.00;;;;5062698;28;20286;-71
2023/10/18 10:43:09;;;;;;;4.10;1.70;;;;;17.80;96696.00;;;;5068874;28;20696;-71
2023/10/18 10:46:00;;;;;;;8.50;3.30;;;;;17.60;96694.00;;;;5060264;28;20208;-71
2023/10/18 10:48:49;;;;;;;5.50;2.30;;;;;18.30;96692.00;;;;5060485;28;20223;-71
2023/10/18 10:51:38;;;;;;;10.83;4.43;;;;;18.90;96682.00;;;;5063659;28;20208;-71
2023/10/18 10:54:29;;;;;;;6.53;2.83;;;;;19.70;96683.00;;;;5063919;28;20223;-71
2023/10/18 10:57:19;;;;;;;37.83;35.77;;;;;19.70;96674.00;;;;5068160;28;20237;-71
2023/10/18 11:00:22;;;;;;;45.47;43.17;;;;;20.20;96673.00;;;;5063844;28;20568;-71
2023/10/18 11:03:53;;;;;;;89.60;85.47;;;;;19.80;96675.00;;;;5065669;28;20256;-72
2023/10/18 11:06:43;;;;;;;70.50;66.83;;;;;18.50;96676.00;;;;5047051;28;20267;-71
2023/10/18 11:09:38;;;;;;;70.07;67.03;;;;;18.60;96647.00;;;;5071711;28;20233;-71
2023/10/18 11:12:29;;;;;;;47.63;44.97;;;;;19.80;96662.00;;;;5068512;28;20688;-71
2023/10/18 11:15:18;;;;;;;40.47;38.47;;;;;19.40;96665.00;;;;5062738;28;20224;-71
2023/10/18 11:18:19;;;;;;;36.53;34.50;;;;;17.80;96661.00;;;;5068389;28;20223;-72
2023/10/18 11:21:18;;;;;;;30.03;28.20;;;;;18.00;96661.00;;;;5062260;28;20207;-71
2023/10/18 11:24:12;;;;;;;23.20;21.67;;;;;18.50;96664.00;;;;5080561;28;20199;-71
2023/10/18 11:27:03;;;;;;;14.27;13.10;;;;;15.90;96649.00;;;;5060919;28;20572;-71
2023/10/18 11:29:55;;;;;;;19.13;12.00;;;;;16.80;96648.00;;;;5066533;28;20239;-71
2023/10/18 11:32:48;;;;;;;16.87;10.10;;;;;17.60;96664.00;;;;5066336;28;20204;-71
2023/10/18 11:35:42;;;;;;;15.43;9.20;;;;;18.00;96654.00;;;;5067545;28;20220;-71
2023/10/18 11:38:34;;;;;;;9.97;7.23;;;;;17.90;96652.00;;;;5067729;28;20239;-71
2023/10/18 11:41:23;;;;;;;9.57;7.73;;;;;17.10;96654.00;;;;5069146;28;20211;-71
2023/10/18 11:44:16;;;;;;;10.47;6.53;;;;;17.60;96649.00;;;;5069200;28;20200;-70
2023/10/18 11:47:11;;;;;;;7.30;3.63;;;;;17.70;96652.00;;;;5072895;28;20203;-70
2023/10/18 11:50:01;;;;;;;5.70;4.10;;;;;17.70;96645.00;;;;5065442;28;20199;-70
2023/10/18 11:52:51;;;;;;;14.80;7.83;;;;;18.00;96641.00;;;;5072448;28;20799;-70
2023/10/18 11:55:55;;;;;;;14.23;8.40;;;;;18.00;96642.00;;;;5072521;28;20722;-71
2023/10/18 11:59:00;;;;;;;17.60;10.80;;;;;17.50;96632.00;;;;5072115;28;20223;-70
2023/10/18 12:01:57;;;;;;;14.63;8.40;;;;;17.10;96618.00;;;;5071149;28;20212;-71
2023/10/18 12:04:48;;;;;;;22.57;11.57;;;;;17.60;96614.00;;;;5079363;28;20202;-71
2023/10/18 12:07:44;;;;;;;11.53;7.07;;;;;17.30;96602.00;;;;5071102;28;20585;-71
2023/10/18 12:10:36;;;;;;;11.60;6.83;;;;;18.40;96602.00;;;;5068920;28;20219;-71
2023/10/18 12:13:26;;;;;;;9.83;8.00;;;;;18.80;96605.00;;;;5070346;28;20207;-71
2023/10/18 12:16:17;;;;;;;9.37;8.50;;;;;19.20;96597.00;;;;5071296;28;20696;-71
2023/10/18 12:19:10;;;;;;;10.97;9.90;;;;;19.70;96598.00;;;;5065704;28;20318;-70
2023/10/18 12:22:00;;;;;;;19.43;17.97;;;;;19.60;96595.00;;;;5077290;28;20202;-70
2023/10/18 12:24:49;;;;;;;28.87;26.13;;;;;19.50;96604.00;;;;5070426;28;20219;-71
2023/10/18 12:27:43;;;;;;;28.97;26.53;;;;;19.00;96591.00;;;;5070476;28;20215;-71
2023/10/18 12:30:37;;;;;;;38.23;33.20;;;;;19.70;96589.00;;;;5070120;28;20695;-70
2023/10/18 12:33:27;;;;;;;31.10;29.47;;;;;19.50;96579.00;;;;5069278;28;20208;-71
2023/10/18 12:36:22;;;;;;;39.50;37.33;;;;;20.10;96591.00;;;;5066629;28;20670;-71
2023/10/18 12:39:20;;;;;;;37.23;35.13;;;;;19.60;96582.00;;;;5063675;28;20224;-72
2023/10/18 12:42:10;;;;;;;48.80;46.00;;;;;20.20;96577.00;;;;5068620;28;20210;-72
2023/10/18 12:45:08;;;;;;;55.67;52.97;;;;;20.00;96575.00;;;;5070608;28;20196;-72
2023/10/18 12:48:08;;;;;;;50.47;47.10;;;;;20.10;96574.00;;;;5066567;28;20715;-72
2023/10/18 12:51:07;;;;;;;47.60;45.40;;;;;19.70;96573.00;;;;5070532;28;20199;-72
2023/10/18 12:53:58;;;;;;;50.20;47.60;;;;;19.00;96566.00;;;;5069363;28;20219;-72
2023/10/18 12:56:56;;;;;;;50.47;46.90;;;;;19.00;96570.00;;;;5071060;28;20207;-72
2023/10/18 12:59:59;;;;;;;54.10;50.67;;;;;18.60;96567.00;;;;5075089;28;20689;-72
2023/10/18 13:03:04;;;;;;;37.60;34.70;;;;;17.90;96561.00;;;;5069792;28;20719;-72
2023/10/18 13:05:53;;;;;;;30.37;27.40;;;;;18.70;96553.00;;;;5070232;28;20222;-72
2023/10/18 13:08:54;;;;;;;30.17;28.10;;;;;19.30;96539.00;;;;5081265;28;20219;-72
2023/10/18 13:11:52;;;;;;;36.17;32.77;;;;;19.50;96542.00;;;;5067021;28;20204;-72
2023/10/18 13:14:41;;;;;;;46.33;39.67;;;;;19.50;96543.00;;;;5065575;28;20231;-71
2023/10/18 13:17:32;;;;;;;50.27;47.10;;;;;19.50;96538.00;;;;5070001;28;20220;-71
2023/10/18 13:20:24;;;;;;;44.47;42.33;;;;;19.60;96532.00;;;;5068115;28;20207;-71
2023/10/18 13:23:18;;;;;;;43.40;40.70;;;;;19.70;96535.00;;;;5075907;28;20203;-71
2023/10/18 13:26:10;;;;;;;45.47;42.17;;;;;19.90;96534.00;;;;5062789;28;20204;-72
2023/10/18 13:29:01;;;;;;;28.30;26.57;;;;;19.60;96531.00;;;;5075859;28;20235;-71
2023/10/18 13:31:50;;;;;;;28.07;25.83;;;;;19.20;96520.00;;;;5065944;28;20299;-71
2023/10/18 13:34:42;;;;;;;16.50;15.00;;;;;18.60;96522.00;;;;5068314;28;20231;-70
2023/10/18 13:37:31;;;;;;;7.80;5.73;;;;;18.50;96520.00;;;;5070135;28;20205;-70
2023/10/18 13:40:20;;;;;;;26.87;25.60;;;;;18.40;96515.00;;;;5063848;28;20215;-71
2023/10/18 13:43:13;;;;;;;22.43;20.93;;;;;18.10;96523.00;;;;5064600;28;20573;-70
2023/10/18 13:46:08;;;;;;;25.37;23.30;;;;;18.50;96517.00;;;;5063017;28;20192;-71
2023/10/18 13:48:57;;;;;;;10.93;6.17;;;;;18.40;96532.00;;;;5068463;28;20231;-71
2023/10/18 13:51:46;;;;;;;18.73;14.93;;;;;18.30;96523.00;;;;5069041;28;20239;-70
2023/10/18 13:54:36;;;;;;;7.60;4.93;;;;;18.00;96529.00;;;;5069657;28;20211;-70
2023/10/18 13:57:26;;;;;;;8.57;4.13;;;;;17.80;96509.00;;;;5064281;28;20685;-71
2023/10/18 14:00:18;;;;;;;8.47;4.27;;;;;18.20;96496.00;;;;5063967;28;20560;-70
2023/10/18 14:03:08;;;;;;;11.63;6.27;;;;;17.80;96487.00;;;;5063606;28;20200;-70
2023/10/18 14:05:58;;;;;;;8.47;5.03;;;;;19.10;96489.00;;;;5061436;28;20673;-70
2023/10/18 14:08:48;;;;;;;18.90;10.50;;;;;19.00;96501.00;;;;5072839;28;20227;-71
2023/10/18 14:11:39;;;;;;;9.47;7.43;;;;;19.40;96498.00;;;;5069328;28;20219;-71
2023/10/18 14:14:28;;;;;;;11.87;10.67;;;;;18.70;96500.00;;;;5070540;28;20226;-71
2023/10/18 14:17:17;;;;;;;8.23;7.23;;;;;18.00;96496.00;;;;5064335;28;20203;-71
2023/10/18 14:20:10;;;;;;;8.47;7.43;;;;;18.40;96494.00;;;;5068871;28;20208;-70
2023/10/18 14:23:07;;;;;;;9.70;6.70;;;;;17.20;96493.00;;;;5069554;28;20214;-71
2023/10/18 14:25:56;;;;;;;16.03;7.90;;;;;17.30;96500.00;;;;5068085;28;20641;-70
2023/10/18 14:28:46;;;;;;;14.60;7.23;;;;;16.50;96504.00;;;;5088762;23;20253;-65
2023/10/18 14:31:36;;;;;;;8.37;4.47;;;;;16.20;96495.00;;;;5086952;28;20200;-64